sensor_id;sensor_type;location;lat;lon;timestamp;temperature;humidity
5899;DHT22;2975;50.956;6.962;2023-03-26T00:01:13;10.30;99.90
5899;DHT22;2975;50.956;6.962;2023-03-26T00:03:41;10.30;99.90
5899;DHT22;2975;50.956;6.962;2023-03-26T00:06:12;10.20;99.90
5899;DHT22;2975;50.956;6.962;2023-03-26T00:08:39;10.20;99.90
5899;DHT22;2975;50.956;6.962;2023-03-26T00:11:06;10.20;99.90
5899;DHT22;2975;50.956;6.962;2023-03-26T00:13:32;10.10;99.90
5899;DHT22;2975;50.956;6.962;2023-03-26T00:15:58;10.10;99.90
5899;DHT22;2975;50.956;6.962;2023-03-26T00:18:24;10.10;99.90
5899;DHT22;2975;50.956;6.962;2023-03-26T00:20:56;10.10;99.90
5899;DHT22;2975;50.956;6.962;2023-03-26T00:23:22;10.10;99.90
5899;DHT22;2975;50.956;6.962;2023-03-26T00:25:48;10.20;99.90
5899;DHT22;2975;50.956;6.962;2023-03-26T00:28:16;10.20;99.90
5899;DHT22;2975;50.956;6.962;2023-03-26T00:30:46;10.20;99.90
5899;DHT22;2975;50.956;6.962;2023-03-26T00:33:12;10.20;99.90
5899;DHT22;2975;50.956;6.962;2023-03-26T00:35:42;10.20;99.90
5899;DHT22;2975;50.956;6.962;2023-03-26T00:38:12;10.20;99.90
5899;DHT22;2975;50.956;6.962;2023-03-26T00:40:38;10.20;99.90
5899;DHT22;2975;50.956;6.962;2023-03-26T00:43:09;10.20;99.90
5899;DHT22;2975;50.956;6.962;2023-03-26T00:45:44;10.20;99.90
5899;DHT22;2975;50.956;6.962;2023-03-26T00:48:10;10.20;99.90
5899;DHT22;2975;50.956;6.962;2023-03-26T00:50:36;10.20;99.90
5899;DHT22;2975;50.956;6.962;2023-03-26T00:53:01;10.20;99.90
5899;DHT22;2975;50.956;6.962;2023-03-26T00:55:27;10.20;99.90
5899;DHT22;2975;50.956;6.962;2023-03-26T00:57:53;10.20;99.90
5899;DHT22;2975;50.956;6.962;2023-03-26T01:00:30;10.20;99.90
5899;DHT22;2975;50.956;6.962;2023-03-26T01:02:59;10.20;99.90
5899;DHT22;2975;50.956;6.962;2023-03-26T01:05:40;10.20;99.90
5899;DHT22;2975;50.956;6.962;2023-03-26T01:10:53;10.20;99.90
5899;DHT22;2975;50.956;6.962;2023-03-26T01:13:29;10.10;99.90
5899;DHT22;2975;50.956;6.962;2023-03-26T01:15:56;10.10;99.90
5899;DHT22;2975;50.956;6.962;2023-03-26T01:18:23;10.00;99.90
5899;DHT22;2975;50.956;6.962;2023-03-26T01:20:54;9.80;99.90
5899;DHT22;2975;50.956;6.962;2023-03-26T01:23:26;9.70;99.90
5899;DHT22;2975;50.956;6.962;2023-03-26T01:26:23;9.50;99.90
5899;DHT22;2975;50.956;6.962;2023-03-26T01:28:57;9.40;99.90
5899;DHT22;2975;50.956;6.962;2023-03-26T01:31:36;9.20;99.90
5899;DHT22;2975;50.956;6.962;2023-03-26T01:34:28;9.10;99.90
5899;DHT22;2975;50.956;6.962;2023-03-26T01:39:30;8.90;99.90
5899;DHT22;2975;50.956;6.962;2023-03-26T01:42:11;8.80;99.90
5899;DHT22;2975;50.956;6.962;2023-03-26T01:44:51;8.70;99.90
5899;DHT22;2975;50.956;6.962;2023-03-26T01:47:20;8.60;99.90
5899;DHT22;2975;50.956;6.962;2023-03-26T01:49:46;8.60;99.90
5899;DHT22;2975;50.956;6.962;2023-03-26T01:52:16;8.50;99.90
5899;DHT22;2975;50.956;6.962;2023-03-26T01:54:42;8.50;99.90
5899;DHT22;2975;50.956;6.962;2023-03-26T01:57:59;8.40;99.90
5899;DHT22;2975;50.956;6.962;2023-03-26T02:00:17;8.40;99.90
5899;DHT22;2975;50.956;6.962;2023-03-26T02:05:46;8.20;99.90
5899;DHT22;2975;50.956;6.962;2023-03-26T02:08:22;8.10;99.90
5899;DHT22;2975;50.956;6.962;2023-03-26T02:10:56;8.20;99.90
5899;DHT22;2975;50.956;6.962;2023-03-26T02:13:23;8.10;99.90
5899;DHT22;2975;50.956;6.962;2023-03-26T02:15:58;8.10;99.90
5899;DHT22;2975;50.956;6.962;2023-03-26T02:18:24;8.10;99.90
5899;DHT22;2975;50.956;6.962;2023-03-26T02:20:51;8.20;99.90
5899;DHT22;2975;50.956;6.962;2023-03-26T02:23:20;8.20;99.90
5899;DHT22;2975;50.956;6.962;2023-03-26T02:25:46;8.20;99.90
5899;DHT22;2975;50.956;6.962;2023-03-26T02:28:12;8.30;99.90
5899;DHT22;2975;50.956;6.962;2023-03-26T02:30:38;8.40;99.90
5899;DHT22;2975;50.956;6.962;2023-03-26T02:33:04;8.40;99.90
5899;DHT22;2975;50.956;6.962;2023-03-26T02:35:29;8.40;99.90
5899;DHT22;2975;50.956;6.962;2023-03-26T02:37:55;8.40;99.90
5899;DHT22;2975;50.956;6.962;2023-03-26T02:40:21;8.50;99.90
5899;DHT22;2975;50.956;6.962;2023-03-26T02:42:47;8.50;99.90
5899;DHT22;2975;50.956;6.962;2023-03-26T02:45:13;8.50;99.90
5899;DHT22;2975;50.956;6.962;2023-03-26T02:47:38;8.50;99.90
5899;DHT22;2975;50.956;6.962;2023-03-26T02:50:04;8.60;99.90
5899;DHT22;2975;50.956;6.962;2023-03-26T02:52:30;8.70;99.90
5899;DHT22;2975;50.956;6.962;2023-03-26T02:54:56;8.70;99.90
5899;DHT22;2975;50.956;6.962;2023-03-26T02:57:23;8.80;99.90
5899;DHT22;2975;50.956;6.962;2023-03-26T02:59:49;8.80;99.90
5899;DHT22;2975;50.956;6.962;2023-03-26T03:02:15;8.80;99.90
5899;DHT22;2975;50.956;6.962;2023-03-26T03:04:42;8.90;99.90
5899;DHT22;2975;50.956;6.962;2023-03-26T03:07:08;9.00;99.90
5899;DHT22;2975;50.956;6.962;2023-03-26T03:09:34;9.10;99.90
5899;DHT22;2975;50.956;6.962;2023-03-26T03:12:00;9.20;99.90
5899;DHT22;2975;50.956;6.962;2023-03-26T03:14:25;9.20;99.90
5899;DHT22;2975;50.956;6.962;2023-03-26T03:16:51;9.30;99.90
5899;DHT22;2975;50.956;6.962;2023-03-26T03:19:18;9.30;99.90
5899;DHT22;2975;50.956;6.962;2023-03-26T03:21:43;9.40;99.90
5899;DHT22;2975;50.956;6.962;2023-03-26T03:24:09;9.40;99.90
5899;DHT22;2975;50.956;6.962;2023-03-26T03:26:35;9.40;99.90
5899;DHT22;2975;50.956;6.962;2023-03-26T03:29:02;9.40;99.90
5899;DHT22;2975;50.956;6.962;2023-03-26T03:31:27;9.40;99.90
5899;DHT22;2975;50.956;6.962;2023-03-26T03:33:53;9.40;99.90
5899;DHT22;2975;50.956;6.962;2023-03-26T03:36:20;9.50;99.90
5899;DHT22;2975;50.956;6.962;2023-03-26T03:38:51;9.60;99.90
5899;DHT22;2975;50.956;6.962;2023-03-26T03:41:17;9.60;99.90
5899;DHT22;2975;50.956;6.962;2023-03-26T03:43:43;9.60;99.90
5899;DHT22;2975;50.956;6.962;2023-03-26T03:46:09;9.60;99.90
5899;DHT22;2975;50.956;6.962;2023-03-26T03:48:35;9.60;99.90
5899;DHT22;2975;50.956;6.962;2023-03-26T03:51:04;9.50;99.90
5899;DHT22;2975;50.956;6.962;2023-03-26T03:53:30;9.50;99.90
5899;DHT22;2975;50.956;6.962;2023-03-26T03:55:56;9.50;99.90
5899;DHT22;2975;50.956;6.962;2023-03-26T03:58:23;9.50;99.90
5899;DHT22;2975;50.956;6.962;2023-03-26T04:00:50;9.40;99.90
5899;DHT22;2975;50.956;6.962;2023-03-26T04:03:16;9.50;99.90
5899;DHT22;2975;50.956;6.962;2023-03-26T04:05:43;9.40;99.90
5899;DHT22;2975;50.956;6.962;2023-03-26T04:08:19;9.40;99.90
5899;DHT22;2975;50.956;6.962;2023-03-26T04:10:45;9.40;99.90
5899;DHT22;2975;50.956;6.962;2023-03-26T04:13:12;9.40;99.90
5899;DHT22;2975;50.956;6.962;2023-03-26T04:15:38;9.30;99.90
5899;DHT22;2975;50.956;6.962;2023-03-26T04:18:04;9.30;99.90
5899;DHT22;2975;50.956;6.962;2023-03-26T04:20:35;9.30;99.90
5899;DHT22;2975;50.956;6.962;2023-03-26T04:23:03;9.20;99.90
5899;DHT22;2975;50.956;6.962;2023-03-26T04:25:30;9.20;99.90
5899;DHT22;2975;50.956;6.962;2023-03-26T04:27:59;9.10;99.90
5899;DHT22;2975;50.956;6.962;2023-03-26T04:30:26;9.10;99.90
5899;DHT22;2975;50.956;6.962;2023-03-26T04:32:51;9.10;99.90
5899;DHT22;2975;50.956;6.962;2023-03-26T04:35:17;9.10;99.90
5899;DHT22;2975;50.956;6.962;2023-03-26T04:37:44;9.10;99.90
5899;DHT22;2975;50.956;6.962;2023-03-26T04:40:19;9.10;99.90
5899;DHT22;2975;50.956;6.962;2023-03-26T04:42:45;9.10;99.90
5899;DHT22;2975;50.956;6.962;2023-03-26T04:45:16;9.10;99.90
5899;DHT22;2975;50.956;6.962;2023-03-26T04:47:42;9.10;99.90
5899;DHT22;2975;50.956;6.962;2023-03-26T04:50:10;9.10;99.90
5899;DHT22;2975;50.956;6.962;2023-03-26T04:52:36;9.10;99.90
5899;DHT22;2975;50.956;6.962;2023-03-26T04:55:11;9.20;99.90
5899;DHT22;2975;50.956;6.962;2023-03-26T04:57:43;9.20;99.90
5899;DHT22;2975;50.956;6.962;2023-03-26T05:00:13;9.20;99.90
5899;DHT22;2975;50.956;6.962;2023-03-26T05:02:43;9.20;99.90
5899;DHT22;2975;50.956;6.962;2023-03-26T05:05:09;9.20;99.90
5899;DHT22;2975;50.956;6.962;2023-03-26T05:07:35;9.20;99.90
5899;DHT22;2975;50.956;6.962;2023-03-26T05:10:01;9.20;99.90
5899;DHT22;2975;50.956;6.962;2023-03-26T05:12:28;9.30;99.90
5899;DHT22;2975;50.956;6.962;2023-03-26T05:14:54;9.30;99.90
5899;DHT22;2975;50.956;6.962;2023-03-26T05:17:21;9.20;99.90
5899;DHT22;2975;50.956;6.962;2023-03-26T05:19:47;9.30;99.90
5899;DHT22;2975;50.956;6.962;2023-03-26T05:22:13;9.40;99.90
5899;DHT22;2975;50.956;6.962;2023-03-26T05:24:38;9.40;99.90
5899;DHT22;2975;50.956;6.962;2023-03-26T05:27:04;9.60;99.90
5899;DHT22;2975;50.956;6.962;2023-03-26T05:29:30;9.60;99.90
5899;DHT22;2975;50.956;6.962;2023-03-26T05:31:56;9.50;99.90
5899;DHT22;2975;50.956;6.962;2023-03-26T05:34:21;9.50;99.90
5899;DHT22;2975;50.956;6.962;2023-03-26T05:36:50;9.60;99.90
5899;DHT22;2975;50.956;6.962;2023-03-26T05:39:16;9.60;99.90
5899;DHT22;2975;50.956;6.962;2023-03-26T05:41:42;9.50;99.90
5899;DHT22;2975;50.956;6.962;2023-03-26T05:44:07;9.50;99.90
5899;DHT22;2975;50.956;6.962;2023-03-26T05:46:33;9.40;99.90
5899;DHT22;2975;50.956;6.962;2023-03-26T05:48:59;9.40;99.90
5899;DHT22;2975;50.956;6.962;2023-03-26T05:51:24;9.40;99.90
5899;DHT22;2975;50.956;6.962;2023-03-26T05:53:50;9.50;99.90
5899;DHT22;2975;50.956;6.962;2023-03-26T05:56:16;9.40;99.90
5899;DHT22;2975;50.956;6.962;2023-03-26T05:58:41;9.40;99.90
5899;DHT22;2975;50.956;6.962;2023-03-26T06:01:10;9.50;99.90
5899;DHT22;2975;50.956;6.962;2023-03-26T06:03:43;9.60;99.90
5899;DHT22;2975;50.956;6.962;2023-03-26T06:06:19;9.70;99.90
5899;DHT22;2975;50.956;6.962;2023-03-26T06:08:47;9.70;99.90
5899;DHT22;2975;50.956;6.962;2023-03-26T06:11:14;9.70;99.90
5899;DHT22;2975;50.956;6.962;2023-03-26T06:13:40;9.50;99.90
5899;DHT22;2975;50.956;6.962;2023-03-26T06:16:07;9.50;99.90
5899;DHT22;2975;50.956;6.962;2023-03-26T06:18:33;9.40;99.90
5899;DHT22;2975;50.956;6.962;2023-03-26T06:20:59;9.40;99.90
5899;DHT22;2975;50.956;6.962;2023-03-26T06:23:25;9.50;99.90
5899;DHT22;2975;50.956;6.962;2023-03-26T06:25:51;9.60;99.90
5899;DHT22;2975;50.956;6.962;2023-03-26T06:28:17;9.50;99.90
5899;DHT22;2975;50.956;6.962;2023-03-26T06:30:42;9.50;99.90
5899;DHT22;2975;50.956;6.962;2023-03-26T06:33:08;9.50;99.90
5899;DHT22;2975;50.956;6.962;2023-03-26T06:35:34;9.60;99.90
5899;DHT22;2975;50.956;6.962;2023-03-26T06:38:00;9.50;99.90
5899;DHT22;2975;50.956;6.962;2023-03-26T06:40:25;9.50;99.90
5899;DHT22;2975;50.956;6.962;2023-03-26T06:42:51;9.40;99.90
5899;DHT22;2975;50.956;6.962;2023-03-26T06:45:17;9.40;99.90
5899;DHT22;2975;50.956;6.962;2023-03-26T06:47:43;9.40;99.90
5899;DHT22;2975;50.956;6.962;2023-03-26T06:50:09;9.50;99.90
5899;DHT22;2975;50.956;6.962;2023-03-26T06:52:36;9.60;99.90
5899;DHT22;2975;50.956;6.962;2023-03-26T06:55:02;9.70;99.90
5899;DHT22;2975;50.956;6.962;2023-03-26T06:57:28;9.70;99.90
5899;DHT22;2975;50.956;6.962;2023-03-26T06:59:53;9.80;99.90
5899;DHT22;2975;50.956;6.962;2023-03-26T07:02:19;9.80;99.90
5899;DHT22;2975;50.956;6.962;2023-03-26T07:04:44;9.80;99.90
5899;DHT22;2975;50.956;6.962;2023-03-26T07:07:10;9.90;99.90
5899;DHT22;2975;50.956;6.962;2023-03-26T07:09:36;9.90;99.90
5899;DHT22;2975;50.956;6.962;2023-03-26T07:12:02;9.90;99.90
5899;DHT22;2975;50.956;6.962;2023-03-26T07:14:28;10.00;99.90
5899;DHT22;2975;50.956;6.962;2023-03-26T07:16:56;10.00;99.90
5899;DHT22;2975;50.956;6.962;2023-03-26T07:19:22;9.90;99.90
5899;DHT22;2975;50.956;6.962;2023-03-26T07:21:48;9.90;99.90
5899;DHT22;2975;50.956;6.962;2023-03-26T07:24:14;9.90;99.90
5899;DHT22;2975;50.956;6.962;2023-03-26T07:27:00;9.90;99.90
5899;DHT22;2975;50.956;6.962;2023-03-26T07:29:51;9.80;99.90
5899;DHT22;2975;50.956;6.962;2023-03-26T07:32:24;9.60;99.90
5899;DHT22;2975;50.956;6.962;2023-03-26T07:47:34;9.50;99.90
5899;DHT22;2975;50.956;6.962;2023-03-26T07:50:00;9.50;99.90
5899;DHT22;2975;50.956;6.962;2023-03-26T07:52:26;9.40;99.90
5899;DHT22;2975;50.956;6.962;2023-03-26T07:54:52;9.40;99.90
5899;DHT22;2975;50.956;6.962;2023-03-26T08:05:25;9.40;99.90
5899;DHT22;2975;50.956;6.962;2023-03-26T08:15:59;9.50;99.90
5899;DHT22;2975;50.956;6.962;2023-03-26T08:21:37;9.50;99.90
5899;DHT22;2975;50.956;6.962;2023-03-26T08:24:19;9.60;99.90
5899;DHT22;2975;50.956;6.962;2023-03-26T08:27:00;9.60;99.90
5899;DHT22;2975;50.956;6.962;2023-03-26T08:32:03;9.50;99.90
5899;DHT22;2975;50.956;6.962;2023-03-26T08:34:29;9.60;99.90
5899;DHT22;2975;50.956;6.962;2023-03-26T08:36:54;9.50;99.90
5899;DHT22;2975;50.956;6.962;2023-03-26T08:39:20;9.60;99.90
5899;DHT22;2975;50.956;6.962;2023-03-26T08:42:03;9.60;99.90
5899;DHT22;2975;50.956;6.962;2023-03-26T09:17:53;9.80;99.90
5899;DHT22;2975;50.956;6.962;2023-03-26T09:37:12;9.60;99.90
5899;DHT22;2975;50.956;6.962;2023-03-26T09:40:17;9.60;99.90
5899;DHT22;2975;50.956;6.962;2023-03-26T09:42:54;9.70;99.90
5899;DHT22;2975;50.956;6.962;2023-03-26T09:45:36;9.80;99.90
5899;DHT22;2975;50.956;6.962;2023-03-26T09:48:24;9.90;99.90
5899;DHT22;2975;50.956;6.962;2023-03-26T09:51:36;9.90;99.90
5899;DHT22;2975;50.956;6.962;2023-03-26T09:54:36;9.80;99.90
5899;DHT22;2975;50.956;6.962;2023-03-26T09:57:47;9.80;99.90
5899;DHT22;2975;50.956;6.962;2023-03-26T10:00:29;9.90;99.90
5899;DHT22;2975;50.956;6.962;2023-03-26T10:09:01;10.00;99.90
5899;DHT22;2975;50.956;6.962;2023-03-26T10:11:57;10.20;99.90
5899;DHT22;2975;50.956;6.962;2023-03-26T10:14:43;10.20;99.90
5899;DHT22;2975;50.956;6.962;2023-03-26T10:36:36;10.20;99.90
5899;DHT22;2975;50.956;6.962;2023-03-26T10:42:07;10.30;99.90
5899;DHT22;2975;50.956;6.962;2023-03-26T10:47:33;10.50;99.90
5899;DHT22;2975;50.956;6.962;2023-03-26T10:52:58;10.80;99.90
5899;DHT22;2975;50.956;6.962;2023-03-26T10:55:41;10.80;99.90
5899;DHT22;2975;50.956;6.962;2023-03-26T10:58:26;11.00;99.90
5899;DHT22;2975;50.956;6.962;2023-03-26T11:01:04;11.20;99.90
5899;DHT22;2975;50.956;6.962;2023-03-26T11:19:53;12.40;99.90
5899;DHT22;2975;50.956;6.962;2023-03-26T11:22:28;12.30;99.90
5899;DHT22;2975;50.956;6.962;2023-03-26T11:25:13;12.20;99.90
5899;DHT22;2975;50.956;6.962;2023-03-26T11:28:11;12.10;99.90
5899;DHT22;2975;50.956;6.962;2023-03-26T11:30:55;12.00;99.90
5899;DHT22;2975;50.956;6.962;2023-03-26T11:33:28;12.00;99.90
5899;DHT22;2975;50.956;6.962;2023-03-26T11:36:00;11.80;99.90
5899;DHT22;2975;50.956;6.962;2023-03-26T11:38:35;11.80;99.90
5899;DHT22;2975;50.956;6.962;2023-03-26T11:41:03;11.90;99.90
5899;DHT22;2975;50.956;6.962;2023-03-26T11:43:35;12.00;99.90
5899;DHT22;2975;50.956;6.962;2023-03-26T11:46:09;12.10;99.90
5899;DHT22;2975;50.956;6.962;2023-03-26T11:48:39;12.10;99.90
5899;DHT22;2975;50.956;6.962;2023-03-26T11:51:08;12.00;99.90
5899;DHT22;2975;50.956;6.962;2023-03-26T11:53:36;12.10;99.90
5899;DHT22;2975;50.956;6.962;2023-03-26T12:01:50;12.40;99.90
5899;DHT22;2975;50.956;6.962;2023-03-26T12:04:32;12.70;99.90
5899;DHT22;2975;50.956;6.962;2023-03-26T12:07:20;12.80;99.90
5899;DHT22;2975;50.956;6.962;2023-03-26T12:09:55;12.90;99.90
5899;DHT22;2975;50.956;6.962;2023-03-26T12:12:25;12.90;99.90
5899;DHT22;2975;50.956;6.962;2023-03-26T12:14:51;12.90;99.90
5899;DHT22;2975;50.956;6.962;2023-03-26T12:17:29;13.00;99.90
5899;DHT22;2975;50.956;6.962;2023-03-26T12:19:55;13.20;99.90
5899;DHT22;2975;50.956;6.962;2023-03-26T12:22:34;13.10;99.90
5899;DHT22;2975;50.956;6.962;2023-03-26T12:32:45;13.00;99.90
5899;DHT22;2975;50.956;6.962;2023-03-26T12:35:23;13.00;99.90
5899;DHT22;2975;50.956;6.962;2023-03-26T12:37:52;13.10;99.90
5899;DHT22;2975;50.956;6.962;2023-03-26T12:40:26;13.30;99.90
5899;DHT22;2975;50.956;6.962;2023-03-26T12:43:00;13.40;99.90
5899;DHT22;2975;50.956;6.962;2023-03-26T12:45:41;13.20;99.90
5899;DHT22;2975;50.956;6.962;2023-03-26T12:48:09;12.90;99.90
5899;DHT22;2975;50.956;6.962;2023-03-26T12:50:54;12.70;99.90
5899;DHT22;2975;50.956;6.962;2023-03-26T12:59:14;12.50;99.90
5899;DHT22;2975;50.956;6.962;2023-03-26T13:01:59;12.30;99.90
5899;DHT22;2975;50.956;6.962;2023-03-26T13:05:16;12.00;99.90
5899;DHT22;2975;50.956;6.962;2023-03-26T13:07:20;12.10;99.90
5899;DHT22;2975;50.956;6.962;2023-03-26T13:09:50;12.10;99.90
5899;DHT22;2975;50.956;6.962;2023-03-26T13:12:32;12.00;99.90
5899;DHT22;2975;50.956;6.962;2023-03-26T13:15:04;11.80;99.90
5899;DHT22;2975;50.956;6.962;2023-03-26T13:17:41;11.90;99.90
5899;DHT22;2975;50.956;6.962;2023-03-26T13:20:16;12.00;99.90
5899;DHT22;2975;50.956;6.962;2023-03-26T13:25:44;12.40;99.90
5899;DHT22;2975;50.956;6.962;2023-03-26T13:28:37;12.60;99.90
5899;DHT22;2975;50.956;6.962;2023-03-26T13:47:19;12.30;99.90
5899;DHT22;2975;50.956;6.962;2023-03-26T13:49:50;11.90;99.90
5899;DHT22;2975;50.956;6.962;2023-03-26T13:52:39;11.80;99.90
5899;DHT22;2975;50.956;6.962;2023-03-26T13:57:58;11.70;99.90
5899;DHT22;2975;50.956;6.962;2023-03-26T14:00:44;12.00;99.90
5899;DHT22;2975;50.956;6.962;2023-03-26T14:32:13;11.60;99.90
5899;DHT22;2975;50.956;6.962;2023-03-26T14:35:03;11.60;99.90
5899;DHT22;2975;50.956;6.962;2023-03-26T14:37:49;11.40;99.90
5899;DHT22;2975;50.956;6.962;2023-03-26T14:43:10;11.70;99.90
5899;DHT22;2975;50.956;6.962;2023-03-26T14:48:42;11.60;99.90
5899;DHT22;2975;50.956;6.962;2023-03-26T14:54:03;11.50;99.90
5899;DHT22;2975;50.956;6.962;2023-03-26T15:05:03;11.30;99.90
5899;DHT22;2975;50.956;6.962;2023-03-26T15:16:38;10.80;99.90
5899;DHT22;2975;50.956;6.962;2023-03-26T15:22:32;10.60;99.90
5899;DHT22;2975;50.956;6.962;2023-03-26T15:31:33;10.60;99.90
5899;DHT22;2975;50.956;6.962;2023-03-26T15:42:50;10.60;99.90
5899;DHT22;2975;50.956;6.962;2023-03-26T15:45:39;10.40;99.90
5899;DHT22;2975;50.956;6.962;2023-03-26T15:51:14;10.00;99.90
5899;DHT22;2975;50.956;6.962;2023-03-26T16:04:54;9.70;99.90
5899;DHT22;2975;50.956;6.962;2023-03-26T16:15:31;9.50;99.90
5899;DHT22;2975;50.956;6.962;2023-03-26T16:20:47;9.40;99.90
5899;DHT22;2975;50.956;6.962;2023-03-26T16:28:59;9.30;99.90
5899;DHT22;2975;50.956;6.962;2023-03-26T16:31:31;9.40;99.90
5899;DHT22;2975;50.956;6.962;2023-03-26T16:36:41;9.40;99.90
5899;DHT22;2975;50.956;6.962;2023-03-26T16:47:31;9.20;99.90
5899;DHT22;2975;50.956;6.962;2023-03-26T16:50:12;9.20;99.90
5899;DHT22;2975;50.956;6.962;2023-03-26T16:58:28;9.00;99.90
5899;DHT22;2975;50.956;6.962;2023-03-26T17:03:50;9.00;99.90
5899;DHT22;2975;50.956;6.962;2023-03-26T17:15:29;8.80;99.90
5899;DHT22;2975;50.956;6.962;2023-03-26T17:18:17;8.80;99.90
5899;DHT22;2975;50.956;6.962;2023-03-26T17:23:58;8.60;99.90
5899;DHT22;2975;50.956;6.962;2023-03-26T17:26:55;8.50;99.90
5899;DHT22;2975;50.956;6.962;2023-03-26T17:29:50;8.60;99.90
5899;DHT22;2975;50.956;6.962;2023-03-26T17:32:22;8.50;99.90
5899;DHT22;2975;50.956;6.962;2023-03-26T17:34:54;8.50;99.90
5899;DHT22;2975;50.956;6.962;2023-03-26T17:40:24;8.50;99.90
5899;DHT22;2975;50.956;6.962;2023-03-26T17:42:36;8.50;99.90
5899;DHT22;2975;50.956;6.962;2023-03-26T17:45:19;8.50;99.90
5899;DHT22;2975;50.956;6.962;2023-03-26T17:47:57;8.50;99.90
5899;DHT22;2975;50.956;6.962;2023-03-26T17:53:29;8.40;99.90
5899;DHT22;2975;50.956;6.962;2023-03-26T17:56:00;8.40;99.90
5899;DHT22;2975;50.956;6.962;2023-03-26T17:58:41;8.30;99.90
5899;DHT22;2975;50.956;6.962;2023-03-26T18:03:48;8.30;99.90
5899;DHT22;2975;50.956;6.962;2023-03-26T18:09:25;8.20;99.90
5899;DHT22;2975;50.956;6.962;2023-03-26T18:15:24;8.20;99.90
5899;DHT22;2975;50.956;6.962;2023-03-26T18:17:30;8.30;99.90
5899;DHT22;2975;50.956;6.962;2023-03-26T18:20:03;8.30;99.90
5899;DHT22;2975;50.956;6.962;2023-03-26T18:22:31;8.20;99.90
5899;DHT22;2975;50.956;6.962;2023-03-26T18:24:59;8.30;99.90
5899;DHT22;2975;50.956;6.962;2023-03-26T18:27:32;8.20;99.90
5899;DHT22;2975;50.956;6.962;2023-03-26T18:30:01;8.20;99.90
5899;DHT22;2975;50.956;6.962;2023-03-26T18:32:30;8.20;99.90
5899;DHT22;2975;50.956;6.962;2023-03-26T18:35:00;8.20;99.90
5899;DHT22;2975;50.956;6.962;2023-03-26T18:37:30;8.20;99.90
5899;DHT22;2975;50.956;6.962;2023-03-26T18:40:08;8.10;99.90
5899;DHT22;2975;50.956;6.962;2023-03-26T18:42:47;8.20;99.90
5899;DHT22;2975;50.956;6.962;2023-03-26T18:45:18;8.00;99.90
5899;DHT22;2975;50.956;6.962;2023-03-26T18:47:45;8.00;99.90
5899;DHT22;2975;50.956;6.962;2023-03-26T18:50:16;7.90;99.90
5899;DHT22;2975;50.956;6.962;2023-03-26T18:52:44;7.90;99.90
5899;DHT22;2975;50.956;6.962;2023-03-26T18:55:12;7.90;99.90
5899;DHT22;2975;50.956;6.962;2023-03-26T18:57:41;7.90;99.90
5899;DHT22;2975;50.956;6.962;2023-03-26T19:00:19;7.80;99.90
5899;DHT22;2975;50.956;6.962;2023-03-26T19:02:49;7.90;99.90
5899;DHT22;2975;50.956;6.962;2023-03-26T19:05:16;7.90;99.90
5899;DHT22;2975;50.956;6.962;2023-03-26T19:07:44;7.90;99.90
5899;DHT22;2975;50.956;6.962;2023-03-26T19:10:16;7.90;99.90
5899;DHT22;2975;50.956;6.962;2023-03-26T19:12:57;7.90;99.90
5899;DHT22;2975;50.956;6.962;2023-03-26T19:15:26;7.90;99.90
5899;DHT22;2975;50.956;6.962;2023-03-26T19:17:57;7.80;99.90
5899;DHT22;2975;50.956;6.962;2023-03-26T19:20:35;7.80;99.90
5899;DHT22;2975;50.956;6.962;2023-03-26T19:23:02;7.80;99.90
5899;DHT22;2975;50.956;6.962;2023-03-26T19:25:37;7.70;99.90
5899;DHT22;2975;50.956;6.962;2023-03-26T19:28:06;7.70;99.90
5899;DHT22;2975;50.956;6.962;2023-03-26T19:30:39;7.70;99.90
5899;DHT22;2975;50.956;6.962;2023-03-26T19:33:19;7.70;99.90
5899;DHT22;2975;50.956;6.962;2023-03-26T19:35:52;7.70;99.90
5899;DHT22;2975;50.956;6.962;2023-03-26T19:38:26;7.70;99.90
5899;DHT22;2975;50.956;6.962;2023-03-26T19:40:56;7.70;99.90
5899;DHT22;2975;50.956;6.962;2023-03-26T19:43:23;7.70;99.90
5899;DHT22;2975;50.956;6.962;2023-03-26T19:45:51;7.80;99.90
5899;DHT22;2975;50.956;6.962;2023-03-26T19:48:19;7.70;99.90
5899;DHT22;2975;50.956;6.962;2023-03-26T19:51:00;7.70;99.90
5899;DHT22;2975;50.956;6.962;2023-03-26T19:53:34;7.70;99.90
5899;DHT22;2975;50.956;6.962;2023-03-26T19:58:34;7.70;99.90
5899;DHT22;2975;50.956;6.962;2023-03-26T20:01:03;7.70;99.90
5899;DHT22;2975;50.956;6.962;2023-03-26T20:03:36;7.70;99.90
5899;DHT22;2975;50.956;6.962;2023-03-26T20:06:03;7.70;99.90
5899;DHT22;2975;50.956;6.962;2023-03-26T20:08:28;7.60;99.90
5899;DHT22;2975;50.956;6.962;2023-03-26T20:10:55;7.60;99.90
5899;DHT22;2975;50.956;6.962;2023-03-26T20:13:21;7.50;99.90
5899;DHT22;2975;50.956;6.962;2023-03-26T20:15:52;7.50;99.90
5899;DHT22;2975;50.956;6.962;2023-03-26T20:18:18;7.50;99.90
5899;DHT22;2975;50.956;6.962;2023-03-26T20:20:44;7.50;99.90
5899;DHT22;2975;50.956;6.962;2023-03-26T20:23:12;7.40;99.90
5899;DHT22;2975;50.956;6.962;2023-03-26T20:25:49;7.40;99.90
5899;DHT22;2975;50.956;6.962;2023-03-26T20:28:18;7.40;99.90
5899;DHT22;2975;50.956;6.962;2023-03-26T20:30:47;7.40;99.90
5899;DHT22;2975;50.956;6.962;2023-03-26T20:33:24;7.40;99.90
5899;DHT22;2975;50.956;6.962;2023-03-26T20:35:52;7.40;99.90
5899;DHT22;2975;50.956;6.962;2023-03-26T20:38:17;7.40;99.90
5899;DHT22;2975;50.956;6.962;2023-03-26T20:40:43;7.30;99.90
5899;DHT22;2975;50.956;6.962;2023-03-26T20:43:11;7.30;99.90
5899;DHT22;2975;50.956;6.962;2023-03-26T20:45:37;7.40;99.90
5899;DHT22;2975;50.956;6.962;2023-03-26T20:48:03;7.40;99.90
5899;DHT22;2975;50.956;6.962;2023-03-26T20:50:29;7.30;99.90
5899;DHT22;2975;50.956;6.962;2023-03-26T20:52:55;7.30;99.90
5899;DHT22;2975;50.956;6.962;2023-03-26T20:55:20;7.30;99.90
5899;DHT22;2975;50.956;6.962;2023-03-26T20:57:47;7.20;99.90
5899;DHT22;2975;50.956;6.962;2023-03-26T21:00:13;7.30;99.90
5899;DHT22;2975;50.956;6.962;2023-03-26T21:02:46;7.20;99.90
5899;DHT22;2975;50.956;6.962;2023-03-26T21:05:12;7.20;99.90
5899;DHT22;2975;50.956;6.962;2023-03-26T21:07:46;7.10;99.90
5899;DHT22;2975;50.956;6.962;2023-03-26T21:10:13;7.10;99.90
5899;DHT22;2975;50.956;6.962;2023-03-26T21:12:43;7.10;99.90
5899;DHT22;2975;50.956;6.962;2023-03-26T21:15:11;7.00;99.90
5899;DHT22;2975;50.956;6.962;2023-03-26T21:17:38;7.00;99.90
5899;DHT22;2975;50.956;6.962;2023-03-26T21:20:04;6.90;99.90
5899;DHT22;2975;50.956;6.962;2023-03-26T21:23:27;6.90;99.90
5899;DHT22;2975;50.956;6.962;2023-03-26T21:25:57;6.90;99.90
5899;DHT22;2975;50.956;6.962;2023-03-26T21:28:36;6.80;99.90
5899;DHT22;2975;50.956;6.962;2023-03-26T21:31:04;6.80;99.90
5899;DHT22;2975;50.956;6.962;2023-03-26T21:33:29;6.70;99.90
5899;DHT22;2975;50.956;6.962;2023-03-26T21:35:58;6.70;99.90
5899;DHT22;2975;50.956;6.962;2023-03-26T21:38:23;6.70;99.90
5899;DHT22;2975;50.956;6.962;2023-03-26T21:40:52;6.60;99.90
5899;DHT22;2975;50.956;6.962;2023-03-26T21:43:19;6.60;99.90
5899;DHT22;2975;50.956;6.962;2023-03-26T21:45:46;6.60;99.90
5899;DHT22;2975;50.956;6.962;2023-03-26T21:48:14;6.60;99.90
5899;DHT22;2975;50.956;6.962;2023-03-26T21:50:40;6.50;99.90
5899;DHT22;2975;50.956;6.962;2023-03-26T21:53:06;6.50;99.90
5899;DHT22;2975;50.956;6.962;2023-03-26T21:55:39;6.40;99.90
5899;DHT22;2975;50.956;6.962;2023-03-26T21:58:20;6.40;99.80
5899;DHT22;2975;50.956;6.962;2023-03-26T22:01:08;6.40;99.90
5899;DHT22;2975;50.956;6.962;2023-03-26T22:06:14;6.30;99.90
5899;DHT22;2975;50.956;6.962;2023-03-26T22:08:42;6.30;99.90
5899;DHT22;2975;50.956;6.962;2023-03-26T22:11:09;6.30;99.90
5899;DHT22;2975;50.956;6.962;2023-03-26T22:13:36;6.20;99.80
5899;DHT22;2975;50.956;6.962;2023-03-26T22:16:05;6.20;99.90
5899;DHT22;2975;50.956;6.962;2023-03-26T22:18:32;6.10;99.90
5899;DHT22;2975;50.956;6.962;2023-03-26T22:20:58;6.10;99.90